Time;durP1;ratioP1;P1;durP2;ratioP2;P2;SDS_P1;SDS_P2;PMS_P1;PMS_P2;Temp;Humidity;BMP_temperature;BMP_pressure;BME280_temperature;BME280_humidity;BME280_pressure;Samples;Min_cycle;Max_cycle;Signal;HPM_P1;HPM_P2
2022/05/29 00:00:08;;;;;;;349.65;210.43;;;;;;;19.60;89.26;99118.06;335941;29;2263;-75
2022/05/29 00:00:19;;;;;;;351.83;211.20;;;;;;;19.61;89.30;99126.88;335042;29;2245;-75
2022/05/29 00:00:29;;;;;;;354.40;212.60;;;;;;;19.60;89.36;99128.69;336537;29;1701;-76
2022/05/29 00:00:39;;;;;;;352.60;213.27;;;;;;;19.60;89.40;99118.06;335624;29;1877;-76
2022/05/29 00:00:50;;;;;;;353.37;216.03;;;;;;;19.62;89.38;99119.75;335929;29;2672;-76
2022/05/29 00:01:00;;;;;;;353.27;214.40;;;;;;;19.62;89.32;99115.28;334560;29;1535;-76
2022/05/29 00:01:11;;;;;;;352.73;215.47;;;;;;;19.62;89.37;99125.03;335947;29;1738;-76
2022/05/29 00:01:22;;;;;;;351.92;214.45;;;;;;;19.61;89.13;99118.91;336498;29;2037;-76
2022/05/29 00:01:32;;;;;;;351.80;215.60;;;;;;;19.59;89.28;99116.38;335604;29;1172;-76
2022/05/29 00:01:42;;;;;;;353.27;216.03;;;;;;;19.62;89.37;99111.78;336510;29;2096;-76
2022/05/29 00:01:53;;;;;;;353.90;214.77;;;;;;;19.62;89.58;99109.13;340415;29;2108;-76
2022/05/29 00:02:07;;;;;;;353.13;213.90;;;;;;;19.62;89.20;99114.44;336889;29;1345;-76
2022/05/29 00:02:17;;;;;;;354.50;213.15;;;;;;;19.62;89.24;99111.78;335584;29;950;-75
2022/05/29 00:02:27;;;;;;;356.53;215.83;;;;;;;19.59;89.42;99110.22;338006;29;2215;-75
2022/05/29 00:02:38;;;;;;;357.48;213.38;;;;;;;19.60;89.60;99110.09;337260;29;2502;-75
2022/05/29 00:02:48;;;;;;;356.53;211.60;;;;;;;19.60;89.61;99110.09;334244;29;1398;-75
2022/05/29 00:02:59;;;;;;;355.42;209.10;;;;;;;19.58;89.70;99109.38;333052;29;2661;-75
2022/05/29 00:03:09;;;;;;;355.33;212.63;;;;;;;19.58;89.54;99100.56;336882;29;2534;-75
2022/05/29 00:03:20;;;;;;;356.53;216.03;;;;;;;19.59;89.81;99104.91;334176;29;1512;-75
2022/05/29 00:03:30;;;;;;;358.80;216.30;;;;;;;19.60;89.27;99103.94;337005;29;2485;-75
2022/05/29 00:03:40;;;;;;;362.13;216.10;;;;;;;19.60;89.75;99102.13;332787;29;2197;-75
2022/05/29 00:03:51;;;;;;;360.70;216.63;;;;;;;19.61;89.54;99100.31;336275;29;1825;-75
2022/05/29 00:04:01;;;;;;;360.20;218.93;;;;;;;19.58;89.63;99103.22;336785;29;1191;-76
2022/05/29 00:04:12;;;;;;;356.45;216.57;;;;;;;19.58;89.45;99104.06;338201;29;1705;-76
2022/05/29 00:04:22;;;;;;;355.70;216.30;;;;;;;19.56;89.67;99100.72;336864;29;2728;-76
2022/05/29 00:04:33;;;;;;;351.73;212.45;;;;;;;19.56;89.69;99103.38;334739;29;3668;-76
2022/05/29 00:04:43;;;;;;;348.42;212.75;;;;;;;19.57;89.65;99102.38;333085;29;4795;-76
2022/05/29 00:04:54;;;;;;;349.13;212.73;;;;;;;19.56;89.77;99100.72;335211;29;2818;-76
2022/05/29 00:05:05;;;;;;;357.23;215.33;;;;;;;19.54;89.95;99092.03;335384;29;2494;-76
2022/05/29 00:05:15;;;;;;;358.70;213.53;;;;;;;19.57;89.92;99098.91;333613;29;2119;-76
2022/05/29 00:05:26;;;;;;;354.80;212.63;;;;;;;19.58;90.34;99098.75;334295;29;1849;-76
2022/05/29 00:05:36;;;;;;;353.73;212.90;;;;;;;19.58;90.12;99100.56;335530;29;2461;-76
2022/05/29 00:05:48;;;;;;;356.00;213.73;;;;;;;19.58;89.91;99106.72;334319;29;1389;-76
2022/05/29 00:05:58;;;;;;;361.73;216.50;;;;;;;19.59;89.94;99100.44;336693;29;2908;-76
2022/05/29 00:06:09;;;;;;;362.42;219.95;;;;;;;19.60;90.32;99104.78;336719;29;2311;-76
2022/05/29 00:06:19;;;;;;;362.90;221.98;;;;;;;19.58;89.74;99104.06;336793;29;1455;-76
2022/05/29 00:06:31;;;;;;;359.10;220.80;;;;;;;19.57;89.88;99098.91;333109;29;1754;-76
2022/05/29 00:06:44;;;;;;;355.48;214.20;;;;;;;19.57;90.20;99102.38;335632;29;2126;-76
2022/05/29 00:06:56;;;;;;;353.75;213.02;;;;;;;19.59;90.42;99104.91;336704;29;5112;-76
2022/05/29 00:07:06;;;;;;;351.58;213.68;;;;;;;19.58;90.40;99101.41;334111;29;2239;-76
2022/05/29 00:07:17;;;;;;;353.33;214.97;;;;;;;19.58;90.38;99106.72;335558;29;1459;-76
2022/05/29 00:07:28;;;;;;;352.12;215.06;;;;;;;19.59;90.40;99102.25;335575;29;2128;-76
2022/05/29 00:07:39;;;;;;;353.57;216.27;;;;;;;19.59;90.61;99104.91;336829;29;2331;-76
2022/05/29 00:07:50;;;;;;;351.42;215.27;;;;;;;19.58;90.52;99106.72;336817;29;1299;-76
2022/05/29 00:08:00;;;;;;;352.33;213.80;;;;;;;19.57;90.40;99099.72;338143;29;3066;-76
2022/05/29 00:08:13;;;;;;;350.73;210.30;;;;;;;19.58;90.29;99108.53;335119;29;2261;-76
2022/05/29 00:08:30;;;;;;;352.30;210.20;;;;;;;19.57;90.69;99107.69;334143;29;5260;-76
2022/05/29 00:08:41;;;;;;;351.25;213.27;;;;;;;19.57;90.44;99106.84;334873;29;5004;-76
2022/05/29 00:08:52;;;;;;;351.70;215.02;;;;;;;19.57;90.60;99107.69;335788;29;1821;-76
2022/05/29 00:09:02;;;;;;;352.10;213.57;;;;;;;19.56;90.65;99102.53;338235;29;1190;-76
2022/05/29 00:09:15;;;;;;;352.03;212.27;;;;;;;19.56;90.61;99106.00;337957;29;2187;-76
2022/05/29 00:09:40;;;;;;;347.06;208.42;;;;;;;19.56;90.77;99106.00;336148;29;2122;-76
2022/05/29 00:09:52;;;;;;;351.85;211.95;;;;;;;19.56;90.52;99106.00;336472;29;5545;-75
2022/05/29 00:10:07;;;;;;;354.58;214.05;;;;;;;19.56;90.37;99106.00;334926;29;2613;-75
2022/05/29 00:10:17;;;;;;;358.33;217.15;;;;;;;19.57;90.16;99112.16;335299;29;5297;-75
2022/05/29 00:10:28;;;;;;;360.38;219.73;;;;;;;19.56;90.33;99108.66;337357;29;1552;-75
2022/05/29 00:10:38;;;;;;;358.73;217.23;;;;;;;19.57;89.92;99113.00;335733;29;1970;-75
2022/05/29 00:10:48;;;;;;;356.15;216.52;;;;;;;19.56;89.96;99106.00;335517;29;1325;-75
2022/05/29 00:10:59;;;;;;;355.83;213.30;;;;;;;19.58;90.23;99111.19;336742;29;2950;-75
2022/05/29 00:11:12;;;;;;;357.58;215.52;;;;;;;19.56;90.19;99106.00;336846;29;2123;-75
2022/05/29 00:11:22;;;;;;;356.67;215.40;;;;;;;19.58;90.17;99113.84;335777;29;2600;-75
2022/05/29 00:11:32;;;;;;;356.02;216.82;;;;;;;19.57;90.00;99112.16;334487;29;1156;-76
2022/05/29 00:11:43;;;;;;;357.97;217.43;;;;;;;19.57;89.87;99113.00;332947;29;2000;-75
2022/05/29 00:11:53;;;;;;;358.27;217.57;;;;;;;19.56;89.76;99106.00;334435;29;2409;-75
2022/05/29 00:12:04;;;;;;;358.33;218.20;;;;;;;19.56;89.81;99110.47;336720;29;1280;-75
2022/05/29 00:12:15;;;;;;;356.88;215.52;;;;;;;19.57;89.89;99113.00;336610;29;2590;-75
2022/05/29 00:12:26;;;;;;;359.55;216.25;;;;;;;19.58;89.54;99112.03;334144;29;2410;-75
2022/05/29 00:12:36;;;;;;;362.33;214.65;;;;;;;19.59;89.55;99108.41;333119;29;1818;-75
2022/05/29 00:12:46;;;;;;;362.63;215.83;;;;;;;19.59;89.32;99111.06;334487;29;1683;-75
2022/05/29 00:12:57;;;;;;;362.93;213.77;;;;;;;19.60;89.65;99111.91;335458;29;2647;-75
2022/05/29 00:13:08;;;;;;;358.52;213.85;;;;;;;19.59;89.53;99103.09;335302;29;2208;-75
2022/05/29 00:13:18;;;;;;;356.27;214.18;;;;;;;19.59;89.53;99113.72;335572;29;1245;-75
2022/05/29 00:13:28;;;;;;;353.93;213.83;;;;;;;19.59;89.37;99105.75;334769;29;1696;-75
2022/05/29 00:13:40;;;;;;;353.42;210.95;;;;;;;19.60;89.28;99106.59;335181;29;3054;-75
2022/05/29 00:13:50;;;;;;;351.85;212.50;;;;;;;19.62;89.58;99103.81;333778;29;4009;-75
2022/05/29 00:14:01;;;;;;;351.20;214.27;;;;;;;19.59;89.28;99103.09;335552;29;5522;-74
2022/05/29 00:14:11;;;;;;;352.97;215.63;;;;;;;19.57;89.38;99097.09;334081;29;1994;-75
2022/05/29 00:14:21;;;;;;;354.53;213.87;;;;;;;19.57;89.48;99101.53;334997;29;4756;-75
2022/05/29 00:14:32;;;;;;;354.45;212.98;;;;;;;19.56;89.38;99100.72;335488;29;1356;-75
2022/05/29 00:14:42;;;;;;;354.33;213.77;;;;;;;19.56;89.50;99097.22;336797;29;3186;-75
2022/05/29 00:14:53;;;;;;;353.00;214.63;;;;;;;19.56;89.16;99095.41;335047;29;2408;-75
2022/05/29 00:15:04;;;;;;;353.17;215.47;;;;;;;19.56;88.99;99099.88;334970;29;1245;-74
2022/05/29 00:15:14;;;;;;;356.48;217.30;;;;;;;19.55;88.86;99092.88;335076;29;2252;-74
2022/05/29 00:15:24;;;;;;;359.95;217.63;;;;;;;19.52;88.83;99088.66;331675;29;2260;-74
2022/05/29 00:15:35;;;;;;;357.37;216.57;;;;;;;19.52;88.75;99090.47;332926;29;940;-74
2022/05/29 00:15:45;;;;;;;353.50;214.13;;;;;;;19.54;88.96;99085.88;334586;29;2423;-74
2022/05/29 00:15:56;;;;;;;351.92;214.35;;;;;;;19.53;88.98;99082.38;334871;29;2651;-75
2022/05/29 00:16:06;;;;;;;354.13;215.77;;;;;;;19.55;89.26;99079.59;335642;29;2596;-75
2022/05/29 00:16:16;;;;;;;356.45;215.48;;;;;;;19.55;88.96;99085.75;338265;29;906;-75
2022/05/29 00:16:27;;;;;;;356.03;214.03;;;;;;;19.55;88.51;99080.44;336000;29;2258;-74
2022/05/29 00:16:38;;;;;;;354.92;213.55;;;;;;;19.55;89.11;99072.47;337005;29;2574;-74
2022/05/29 00:16:48;;;;;;;353.35;215.63;;;;;;;19.56;89.12;99076.81;335855;29;1470;-74
2022/05/29 00:16:59;;;;;;;354.83;218.70;;;;;;;19.55;89.08;99072.47;336387;29;1871;-74
2022/05/29 00:17:09;;;;;;;357.03;220.23;;;;;;;19.55;89.05;99072.47;336490;29;2266;-74
2022/05/29 00:17:21;;;;;;;358.70;219.18;;;;;;;19.53;88.99;99068.28;335330;29;1819;-74
2022/05/29 00:17:31;;;;;;;359.42;217.98;;;;;;;19.52;89.20;99070.09;334260;29;985;-74
2022/05/29 00:17:43;;;;;;;359.93;219.97;;;;;;;19.51;89.31;99065.75;335585;29;2278;-74
2022/05/29 00:17:53;;;;;;;359.15;219.00;;;;;;;19.54;89.31;99069.97;335497;29;2551;-75
2022/05/29 00:18:03;;;;;;;358.40;216.48;;;;;;;19.52;89.12;99061.28;336909;29;1004;-75
2022/05/29 00:18:14;;;;;;;360.33;218.10;;;;;;;19.51;89.39;99060.44;336700;29;2546;-75
2022/05/29 00:18:25;;;;;;;359.85;222.30;;;;;;;19.51;89.42;99059.59;336827;29;2568;-75
2022/05/29 00:18:37;;;;;;;361.55;223.50;;;;;;;19.53;89.75;99053.19;335566;29;995;-75
2022/05/29 00:18:48;;;;;;;361.55;221.80;;;;;;;19.52;89.90;99058.63;333904;29;1980;-75
2022/05/29 00:18:58;;;;;;;362.42;220.50;;;;;;;19.51;90.07;99055.13;335557;29;1726;-75
2022/05/29 00:19:08;;;;;;;358.40;219.67;;;;;;;19.52;90.48;99055.97;334598;29;2768;-75
2022/05/29 00:19:19;;;;;;;355.92;218.15;;;;;;;19.49;90.29;99050.94;334713;29;1114;-75
2022/05/29 00:19:29;;;;;;;354.93;218.70;;;;;;;19.49;90.52;99050.94;333992;29;1924;-75
2022/05/29 00:19:39;;;;;;;355.53;217.43;;;;;;;19.47;90.56;99051.06;332242;29;2306;-74
2022/05/29 00:19:50;;;;;;;356.35;215.52;;;;;;;19.47;90.73;99048.41;336509;29;1056;-74
2022/05/29 00:20:01;;;;;;;354.07;214.37;;;;;;;19.49;91.07;99049.13;334186;29;3052;-74
2022/05/29 00:20:11;;;;;;;352.50;215.55;;;;;;;19.48;90.86;99047.44;335622;29;2474;-74
2022/05/29 00:20:21;;;;;;;354.60;219.93;;;;;;;19.51;91.05;99047.16;334083;29;2604;-74
2022/05/29 00:20:32;;;;;;;356.15;219.77;;;;;;;19.52;90.83;99051.50;331804;29;910;-74
2022/05/29 00:20:44;;;;;;;359.40;222.27;;;;;;;19.51;91.16;99049.81;331818;29;1910;-74
2022/05/29 00:20:56;;;;;;;356.38;221.63;;;;;;;19.52;91.24;99050.66;335411;29;2588;-74
2022/05/29 00:21:07;;;;;;;354.02;218.63;;;;;;;19.53;91.28;99044.38;335522;29;1518;-74
2022/05/29 00:21:17;;;;;;;353.53;216.93;;;;;;;19.54;91.43;99051.38;330559;29;1295;-75
2022/05/29 00:21:29;;;;;;;356.45;217.10;;;;;;;19.53;91.09;99058.50;333011;29;2542;-75
2022/05/29 00:21:39;;;;;;;357.13;218.90;;;;;;;19.53;91.35;99047.03;333891;29;2492;-75
2022/05/29 00:21:49;;;;;;;359.30;220.43;;;;;;;19.53;91.33;99047.88;333107;29;954;-75
2022/05/29 00:22:00;;;;;;;358.27;218.27;;;;;;;19.53;91.41;99050.53;333327;29;2525;-74
2022/05/29 00:22:12;;;;;;;355.95;214.93;;;;;;;19.52;90.99;99051.50;335531;29;1738;-74
2022/05/29 00:22:23;;;;;;;356.48;211.18;;;;;;;19.52;90.75;99051.50;337963;29;2271;-74
2022/05/29 00:22:33;;;;;;;356.35;212.82;;;;;;;19.53;90.66;99053.19;335673;29;940;-74
2022/05/29 00:22:44;;;;;;;359.50;215.60;;;;;;;19.52;90.54;99051.50;334439;29;2462;-74
2022/05/29 00:22:54;;;;;;;358.77;216.03;;;;;;;19.52;90.64;99051.50;332158;29;3927;-74
2022/05/29 00:23:04;;;;;;;357.67;217.57;;;;;;;19.52;90.01;99056.81;331924;29;4882;-74
2022/05/29 00:23:15;;;;;;;356.60;218.27;;;;;;;19.51;90.17;99055.13;334076;29;2444;-74
2022/05/29 00:23:27;;;;;;;359.65;220.43;;;;;;;19.52;90.72;99064.78;332956;29;2251;-74
2022/05/29 00:23:41;;;;;;;359.08;219.68;;;;;;;19.51;91.01;99060.44;334065;29;2724;-74
2022/05/29 00:23:53;;;;;;;354.90;214.32;;;;;;;19.51;90.85;99059.59;336180;29;4896;-74
2022/05/29 00:24:04;;;;;;;354.02;210.20;;;;;;;19.53;90.66;99062.97;336927;29;1424;-74
2022/05/29 00:24:15;;;;;;;358.20;213.50;;;;;;;19.51;90.90;99065.75;334296;29;1713;-74
2022/05/29 00:24:25;;;;;;;356.17;213.57;;;;;;;19.51;91.15;99057.78;332404;29;2591;-74
2022/05/29 00:24:35;;;;;;;358.40;217.00;;;;;;;19.52;90.88;99062.13;333135;29;1427;-74
2022/05/29 00:24:47;;;;;;;357.90;215.65;;;;;;;19.51;90.84;99064.91;333009;29;2405;-74
2022/05/29 00:24:57;;;;;;;359.10;215.27;;;;;;;19.51;90.71;99068.41;335588;29;2610;-74
2022/05/29 00:25:08;;;;;;;356.63;212.03;;;;;;;19.52;90.51;99056.81;334335;29;1560;-74
2022/05/29 00:25:19;;;;;;;354.85;210.43;;;;;;;19.51;90.47;99065.75;333015;29;975;-74
2022/05/29 00:25:29;;;;;;;356.00;212.60;;;;;;;19.53;90.57;99068.28;334670;29;2475;-74
2022/05/29 00:25:41;;;;;;;357.33;216.20;;;;;;;19.52;90.73;99063.94;335519;29;2401;-74
2022/05/29 00:25:52;;;;;;;356.80;216.13;;;;;;;19.53;90.66;99071.78;336491;29;1917;-74
2022/05/29 00:26:02;;;;;;;353.63;215.77;;;;;;;19.51;90.69;99064.91;336929;29;896;-74
2022/05/29 00:26:13;;;;;;;352.33;215.27;;;;;;;19.50;90.76;99069.34;334749;29;2642;-74
2022/05/29 00:26:24;;;;;;;352.05;214.15;;;;;;;19.51;90.72;99063.09;336970;29;2212;-74
2022/05/29 00:26:34;;;;;;;353.53;210.73;;;;;;;19.51;90.67;99065.75;334585;29;912;-74
2022/05/29 00:26:44;;;;;;;348.20;205.38;;;;;;;19.50;90.75;99066.69;335156;29;2134;-74
2022/05/29 00:26:55;;;;;;;346.80;205.30;;;;;;;19.51;90.75;99062.25;336653;29;2435;-74
2022/05/29 00:27:05;;;;;;;345.53;206.47;;;;;;;19.50;91.06;99061.38;334248;29;1287;-74
2022/05/29 00:27:19;;;;;;;350.63;211.40;;;;;;;19.51;91.05;99060.44;335333;29;2015;-74
2022/05/29 00:27:29;;;;;;;352.65;214.70;;;;;;;19.50;91.18;99069.34;337564;29;2433;-74
2022/05/29 00:27:39;;;;;;;353.38;215.07;;;;;;;19.49;91.71;99057.09;336756;29;2556;-74
2022/05/29 00:27:50;;;;;;;351.50;213.27;;;;;;;19.50;91.60;99065.84;334332;29;1341;-74
2022/05/29 00:28:00;;;;;;;349.93;211.53;;;;;;;19.49;91.42;99065.03;334050;29;2726;-74
2022/05/29 00:28:11;;;;;;;351.85;211.57;;;;;;;19.50;91.60;99063.19;335131;29;1984;-74
2022/05/29 00:28:21;;;;;;;353.57;212.80;;;;;;;19.50;91.62;99063.19;334172;29;901;-74
2022/05/29 00:28:31;;;;;;;356.25;215.90;;;;;;;19.49;91.70;99065.03;334236;29;2683;-74
2022/05/29 00:28:42;;;;;;;356.03;217.83;;;;;;;19.49;92.01;99057.09;334011;29;2548;-74
2022/05/29 00:28:53;;;;;;;354.92;216.27;;;;;;;19.49;92.04;99064.19;333690;29;2407;-74
2022/05/29 00:29:03;;;;;;;354.17;216.63;;;;;;;19.48;92.05;99060.69;335565;29;1338;-74
2022/05/29 00:29:13;;;;;;;355.10;215.23;;;;;;;19.49;92.10;99062.38;335058;29;2577;-74
2022/05/29 00:29:24;;;;;;;358.90;216.50;;;;;;;19.48;91.85;99058.06;335507;29;2504;-74
2022/05/29 00:29:35;;;;;;;360.73;215.13;;;;;;;19.49;92.14;99062.38;335763;29;1788;-74
2022/05/29 00:29:46;;;;;;;360.75;214.15;;;;;;;19.50;91.83;99060.53;335092;29;1758;-74
2022/05/29 00:29:56;;;;;;;360.52;212.70;;;;;;;19.49;91.86;99061.53;335509;29;1919;-74
2022/05/29 00:30:08;;;;;;;359.20;213.70;;;;;;;19.50;91.50;99063.19;333013;29;1219;-74
2022/05/29 00:30:18;;;;;;;357.27;215.20;;;;;;;19.50;91.43;99057.88;335095;29;1472;-74
2022/05/29 00:30:29;;;;;;;355.42;215.02;;;;;;;19.48;91.74;99066.00;336750;29;2681;-74
2022/05/29 00:30:40;;;;;;;355.07;213.70;;;;;;;19.48;91.56;99060.69;336851;29;1619;-74
2022/05/29 00:30:51;;;;;;;355.20;214.65;;;;;;;19.48;91.50;99060.69;335536;29;1413;-74
2022/05/29 00:31:01;;;;;;;356.85;213.38;;;;;;;19.48;91.72;99060.69;335311;29;1823;-76
2022/05/29 00:31:12;;;;;;;362.33;214.87;;;;;;;19.49;91.44;99061.53;336850;29;2576;-74
2022/05/29 00:31:22;;;;;;;360.52;213.32;;;;;;;19.48;91.37;99063.38;336818;29;1077;-74
2022/05/29 00:31:33;;;;;;;359.43;213.53;;;;;;;19.48;91.37;99060.69;334166;29;2916;-74
2022/05/29 00:31:43;;;;;;;354.42;212.15;;;;;;;19.48;91.02;99060.69;334815;29;2479;-74
2022/05/29 00:31:54;;;;;;;354.60;214.30;;;;;;;19.49;90.86;99056.25;334474;29;1723;-74
2022/05/29 00:32:05;;;;;;;358.83;215.95;;;;;;;19.46;91.07;99049.38;336661;29;4827;-74
2022/05/29 00:32:15;;;;;;;358.45;217.10;;;;;;;19.46;90.85;99052.03;335425;29;4788;-74
2022/05/29 00:32:26;;;;;;;356.05;216.98;;;;;;;19.45;90.99;99052.16;336685;29;2537;-74
2022/05/29 00:32:36;;;;;;;354.90;219.50;;;;;;;19.46;90.58;99056.50;337097;29;2108;-74
2022/05/29 00:32:46;;;;;;;355.65;218.27;;;;;;;19.46;90.63;99052.03;335589;29;2886;-74
2022/05/29 00:32:57;;;;;;;352.17;213.33;;;;;;;19.47;90.40;99058.19;336589;29;2380;-75
2022/05/29 00:33:08;;;;;;;351.23;212.13;;;;;;;19.45;90.45;99055.66;333272;29;2259;-75
2022/05/29 00:33:18;;;;;;;350.42;212.00;;;;;;;19.44;90.53;99048.66;334077;29;1030;-75
2022/05/29 00:33:29;;;;;;;351.53;215.60;;;;;;;19.44;90.41;99053.13;334176;29;2218;-75
2022/05/29 00:33:40;;;;;;;352.03;214.63;;;;;;;19.44;90.21;99059.28;336749;29;2074;-74
2022/05/29 00:33:50;;;;;;;356.58;217.65;;;;;;;19.45;90.10;99050.34;337707;29;1322;-74
2022/05/29 00:34:01;;;;;;;362.43;218.37;;;;;;;19.43;90.24;99052.28;337721;29;2744;-74
2022/05/29 00:34:12;;;;;;;363.35;220.85;;;;;;;19.44;89.93;99048.66;338156;29;1516;-74
2022/05/29 00:34:22;;;;;;;360.48;218.65;;;;;;;19.44;90.05;99048.66;336926;29;961;-74
2022/05/29 00:34:33;;;;;;;357.23;218.57;;;;;;;19.42;89.83;99045.31;336933;29;2558;-74
2022/05/29 00:34:43;;;;;;;356.23;215.37;;;;;;;19.42;89.83;99050.63;339517;29;1339;-74
2022/05/29 00:34:53;;;;;;;355.33;214.07;;;;;;;19.43;90.01;99052.28;339573;29;1860;-74
2022/05/29 00:35:04;;;;;;;354.90;212.13;;;;;;;19.42;89.96;99045.31;341562;28;922;-74
2022/05/29 00:35:14;;;;;;;356.00;213.60;;;;;;;19.42;90.19;99045.31;340325;28;1532;-74
2022/05/29 00:35:25;;;;;;;357.83;216.47;;;;;;;19.43;90.32;99040.84;341080;28;2363;-74
2022/05/29 00:35:37;;;;;;;355.15;217.73;;;;;;;19.43;90.39;99049.63;339588;29;1426;-74
2022/05/29 00:35:47;;;;;;;355.50;216.70;;;;;;;19.43;90.57;99044.34;340659;29;2693;-74
2022/05/29 00:35:58;;;;;;;356.13;219.00;;;;;;;19.43;90.47;99040.84;340009;29;2349;-74
2022/05/29 00:36:09;;;;;;;354.27;214.47;;;;;;;19.43;90.62;99041.69;338783;29;1775;-74
2022/05/29 00:36:19;;;;;;;351.95;213.20;;;;;;;19.42;90.39;99045.31;338166;29;1409;-74
2022/05/29 00:36:34;;;;;;;350.33;209.67;;;;;;;19.42;90.58;99040.00;338163;29;2183;-75
2022/05/29 00:36:44;;;;;;;353.55;213.68;;;;;;;19.45;90.46;99046.84;335453;29;5646;-75
2022/05/29 00:36:55;;;;;;;355.17;215.32;;;;;;;19.44;90.58;99047.81;338090;29;2198;-75
2022/05/29 00:37:05;;;;;;;356.00;218.10;;;;;;;19.42;90.51;99045.31;338138;29;1635;-74
2022/05/29 00:37:16;;;;;;;353.10;214.25;;;;;;;19.43;90.43;99046.16;338435;29;1240;-74
2022/05/29 00:37:27;;;;;;;353.77;214.43;;;;;;;19.42;90.32;99044.47;335549;29;2289;-74
2022/05/29 00:37:39;;;;;;;355.70;216.57;;;;;;;19.41;90.72;99042.78;338264;29;918;-74
2022/05/29 00:37:50;;;;;;;361.80;222.15;;;;;;;19.42;90.53;99041.81;335543;29;4676;-74
2022/05/29 00:38:00;;;;;;;363.00;221.80;;;;;;;19.42;90.67;99039.16;338142;29;2661;-74
2022/05/29 00:38:11;;;;;;;362.45;220.68;;;;;;;19.42;90.54;99042.66;338259;29;1708;-74
2022/05/29 00:38:21;;;;;;;363.13;221.15;;;;;;;19.41;90.30;99035.66;335650;29;895;-74
2022/05/29 00:38:35;;;;;;;364.50;221.73;;;;;;;19.41;90.57;99042.78;340689;28;2533;-74
2022/05/29 00:38:46;;;;;;;359.23;217.50;;;;;;;19.39;90.15;99036.78;338335;29;5255;-74
2022/05/29 00:38:56;;;;;;;356.75;216.43;;;;;;;19.38;90.52;99038.56;339328;29;2482;-74
2022/05/29 00:39:07;;;;;;;355.57;215.23;;;;;;;19.38;90.43;99046.53;336881;29;1283;-74
2022/05/29 00:39:18;;;;;;;358.02;217.25;;;;;;;19.36;90.38;99039.69;338038;29;2364;-74
2022/05/29 00:39:28;;;;;;;359.13;219.87;;;;;;;19.36;90.36;99037.88;336867;29;1931;-74
2022/05/29 00:39:38;;;;;;;363.52;222.88;;;;;;;19.36;90.68;99037.03;339528;29;2410;-74
2022/05/29 00:39:49;;;;;;;360.37;220.30;;;;;;;19.36;90.41;99039.69;338300;29;2080;-74
2022/05/29 00:40:00;;;;;;;356.83;219.75;;;;;;;19.34;90.52;99042.47;339135;29;2063;-74
2022/05/29 00:40:26;;;;;;;352.23;217.15;;;;;;;19.34;90.29;99036.31;338041;29;2536;-74
2022/05/29 00:40:45;;;;;;;353.52;216.10;;;;;;;19.36;90.46;99040.53;340776;29;925;-74
2022/05/29 00:41:17;;;;;;;352.40;212.25;;;;;;;19.35;90.34;99045.97;340306;29;2110;-74
2022/05/29 00:41:30;;;;;;;352.90;208.82;;;;;;;19.35;90.36;99038.84;338593;29;3199;-74
2022/05/29 00:41:41;;;;;;;355.65;211.32;;;;;;;19.36;90.67;99043.19;338317;29;2734;-74
2022/05/29 00:41:51;;;;;;;355.95;212.75;;;;;;;19.36;90.33;99040.53;336891;29;2501;-74
2022/05/29 00:42:06;;;;;;;356.03;213.90;;;;;;;19.36;90.25;99039.69;338231;29;2454;-74
2022/05/29 00:42:16;;;;;;;353.30;213.18;;;;;;;19.36;90.32;99037.88;339480;29;2383;-76
2022/05/29 00:42:27;;;;;;;352.00;213.48;;;;;;;19.36;90.72;99035.22;339363;29;2485;-74
2022/05/29 00:42:37;;;;;;;354.67;213.53;;;;;;;19.37;90.72;99041.38;336933;29;1211;-74
2022/05/29 00:42:48;;;;;;;353.05;212.00;;;;;;;19.37;90.68;99039.56;336772;29;2581;-74
2022/05/29 00:42:58;;;;;;;351.73;211.80;;;;;;;19.37;90.56;99047.50;340875;29;2582;-74
2022/05/29 00:43:08;;;;;;;352.13;213.37;;;;;;;19.37;90.52;99042.22;338403;29;1278;-74
2022/05/29 00:43:19;;;;;;;354.27;213.00;;;;;;;19.36;90.22;99045.00;338152;29;1206;-74
2022/05/29 00:43:29;;;;;;;358.63;212.37;;;;;;;19.36;90.53;99043.19;336234;29;2315;-74
2022/05/29 00:43:39;;;;;;;358.52;211.68;;;;;;;19.35;90.54;99043.31;337414;29;2183;-74
2022/05/29 00:44:10;;;;;;;359.17;213.27;;;;;;;19.37;90.25;99046.69;337903;29;980;-74
2022/05/29 00:44:25;;;;;;;359.55;215.38;;;;;;;19.36;90.16;99045.00;338185;29;1037;-74
2022/05/29 00:44:36;;;;;;;358.60;214.80;;;;;;;19.33;90.08;99046.09;337977;29;5535;-75
2022/05/29 00:44:46;;;;;;;358.50;213.15;;;;;;;19.35;90.07;99044.16;339271;29;2187;-75
2022/05/29 00:44:56;;;;;;;361.30;215.88;;;;;;;19.35;90.19;99048.63;338344;29;2253;-75
2022/05/29 00:45:11;;;;;;;362.70;218.37;;;;;;;19.34;89.83;99046.94;336791;29;1283;-75
2022/05/29 00:45:21;;;;;;;357.85;215.18;;;;;;;19.35;89.96;99049.47;334312;29;5351;-75
2022/05/29 00:45:37;;;;;;;355.70;214.35;;;;;;;19.36;90.22;99047.66;335786;29;2131;-75
2022/05/29 00:45:53;;;;;;;354.00;212.20;;;;;;;19.35;89.97;99049.47;339184;29;2070;-75
2022/05/29 00:46:04;;;;;;;354.35;210.50;;;;;;;19.37;90.01;99046.69;338178;29;2350;-74
2022/05/29 00:46:15;;;;;;;358.17;212.88;;;;;;;19.37;90.00;99050.16;339467;29;2049;-74
2022/05/29 00:46:25;;;;;;;356.90;213.18;;;;;;;19.35;90.19;99049.47;337978;29;1928;-75
2022/05/29 00:46:35;;;;;;;357.03;217.50;;;;;;;19.37;89.93;99050.16;340428;28;2156;-75
2022/05/29 00:47:04;;;;;;;356.10;215.95;;;;;;;19.37;90.06;99052.81;337945;29;2617;-75
2022/05/29 00:47:18;;;;;;;349.98;211.90;;;;;;;19.34;89.81;99053.09;337887;29;5060;-75
2022/05/29 00:47:29;;;;;;;353.42;212.65;;;;;;;19.33;90.08;99050.56;339285;29;5663;-75
2022/05/29 00:47:39;;;;;;;355.13;211.23;;;;;;;19.33;89.95;99054.06;339453;29;2718;-75
2022/05/29 00:47:50;;;;;;;359.23;214.07;;;;;;;19.33;89.90;99054.06;336944;29;781;-75
2022/05/29 00:48:03;;;;;;;359.80;216.73;;;;;;;19.36;89.82;99056.44;339181;29;2562;-74
2022/05/29 00:48:16;;;;;;;354.50;211.68;;;;;;;19.37;89.93;99059.94;337912;29;4803;-74
2022/05/29 00:48:26;;;;;;;351.65;209.75;;;;;;;19.36;89.65;99051.13;337282;29;5470;-74
2022/05/29 00:48:37;;;;;;;351.17;210.10;;;;;;;19.35;89.71;99054.75;335395;29;1005;-74
2022/05/29 00:48:47;;;;;;;355.87;213.33;;;;;;;19.33;89.88;99062.03;337916;29;1802;-74
2022/05/29 00:48:57;;;;;;;353.27;209.93;;;;;;;19.32;89.78;99055.03;339014;29;1741;-74
2022/05/29 00:49:08;;;;;;;351.75;209.25;;;;;;;19.33;89.43;99062.03;339636;29;907;-74
2022/05/29 00:49:23;;;;;;;351.08;207.68;;;;;;;19.30;89.50;99054.31;340639;29;2539;-74
2022/05/29 00:49:34;;;;;;;351.98;210.30;;;;;;;19.32;89.57;99052.38;337994;29;1957;-75
2022/05/29 00:49:47;;;;;;;347.73;209.32;;;;;;;19.32;89.17;99054.19;336810;29;1803;-75
2022/05/29 00:49:58;;;;;;;349.85;211.82;;;;;;;19.33;89.30;99055.88;337785;29;2404;-75
2022/05/29 00:50:09;;;;;;;351.38;212.88;;;;;;;19.33;89.26;99048.75;338306;29;877;-75
2022/05/29 00:50:22;;;;;;;354.10;214.33;;;;;;;19.33;89.02;99053.22;338092;29;1993;-75
2022/05/29 00:50:32;;;;;;;353.65;215.52;;;;;;;19.33;88.99;99051.41;334311;29;4386;-75
2022/05/29 00:50:46;;;;;;;354.93;216.77;;;;;;;19.33;88.77;99047.91;335645;29;3215;-75
2022/05/29 00:50:59;;;;;;;358.55;221.45;;;;;;;19.32;89.04;99049.72;335038;29;1843;-75
2022/05/29 00:51:11;;;;;;;355.30;218.38;;;;;;;19.32;89.13;99044.41;337906;29;5091;-75
2022/05/29 00:51:23;;;;;;;355.65;218.20;;;;;;;19.33;88.98;99043.44;336810;29;1282;-75
2022/05/29 00:51:36;;;;;;;357.98;218.85;;;;;;;19.32;89.43;99039.09;338210;29;2433;-74
2022/05/29 00:51:53;;;;;;;361.05;219.00;;;;;;;19.32;89.27;99043.56;337671;29;5476;-74
2022/05/29 00:52:14;;;;;;;364.25;216.82;;;;;;;19.31;89.27;99042.72;336452;29;4986;-74